Time;durP1;ratioP1;P1;durP2;ratioP2;P2;SDS_P1;SDS_P2;PMS_P1;PMS_P2;Temp;Humidity;BMP_temperature;BMP_pressure;BME280_temperature;BME280_humidity;BME280_pressure;Samples;Min_cycle;Max_cycle;Signal;HPM_P1;HPM_P2
2022/02/01 00:01:12;;;;;;;26.20;11.60;;;;;;;-1.02;84.93;95595.88;106043;1270;1769004;-82
2022/02/01 00:03:47;;;;;;;20.20;8.90;;;;;;;-1.03;84.92;95602.30;105490;1271;1905664;-82
2022/02/01 00:06:24;;;;;;;23.10;12.30;;;;;;;-1.04;84.87;95599.83;105905;1271;2077242;-82
2022/02/01 00:09:05;;;;;;;24.50;12.20;;;;;;;-1.02;85.02;95608.20;105718;1271;1986426;-81
2022/02/01 00:11:49;;;;;;;26.50;11.90;;;;;;;-1.00;85.08;95609.73;107108;1271;281151;-82
2022/02/01 00:14:30;;;;;;;28.00;13.40;;;;;;;-1.01;84.90;95606.96;107368;1271;284573;-82
2022/02/01 00:17:26;;;;;;;24.90;13.10;;;;;;;-1.03;85.06;95607.34;106401;1271;1254346;-82
2022/02/01 00:20:12;;;;;;;24.30;12.60;;;;;;;-1.03;84.98;95605.83;107262;1271;124085;-82
2022/02/01 00:34:19;;;;;;;31.80;17.70;;;;;;;-1.57;83.72;95620.77;105693;1271;2108065;-82
2022/02/01 00:36:55;;;;;;;30.10;16.90;;;;;;;-1.74;83.79;95621.94;105126;1271;1985990;-82
2022/02/01 00:39:31;;;;;;;29.10;15.20;;;;;;;-1.85;83.91;95619.73;105654;1271;1960869;-81
2022/02/01 00:42:09;;;;;;;34.10;15.50;;;;;;;-1.87;84.07;95620.33;106204;1270;1477954;-82
2022/02/01 00:44:42;;;;;;;27.60;15.30;;;;;;;-1.99;83.94;95618.96;107261;1271;137192;-82
2022/02/01 00:47:15;;;;;;;38.90;17.90;;;;;;;-2.04;84.06;95621.73;107235;1271;177986;-82
2022/02/01 00:49:49;;;;;;;34.80;17.60;;;;;;;-2.12;84.25;95621.88;103834;1271;1729705;-82
2022/02/01 00:52:20;;;;;;;34.90;15.90;;;;;;;-2.13;84.33;95626.95;107458;1270;145383;-82
2022/02/01 00:54:54;;;;;;;33.20;17.70;;;;;;;-2.17;84.32;95626.11;107459;1271;246723;-82
2022/02/01 00:57:28;;;;;;;35.30;17.30;;;;;;;-2.19;84.67;95626.58;106144;1271;1637971;-81
2022/02/01 01:00:00;;;;;;;41.30;17.90;;;;;;;-2.23;84.81;95627.20;107313;1270;100538;-82
2022/02/01 01:02:31;;;;;;;30.10;16.80;;;;;;;-2.29;84.89;95632.59;106825;1271;205241;-82
2022/02/01 01:05:03;;;;;;;34.00;15.90;;;;;;;-2.32;85.19;95630.96;107382;1271;107467;-82
2022/02/01 01:07:35;;;;;;;31.20;14.90;;;;;;;-2.30;85.52;95626.61;105749;1271;2037471;-82
2022/02/01 01:10:11;;;;;;;24.90;14.90;;;;;;;-2.28;85.72;95623.23;107187;1271;157718;-82
2022/02/01 01:12:53;;;;;;;34.50;15.70;;;;;;;-2.31;85.90;95628.14;106527;1271;1256633;-81
2022/02/01 01:15:28;;;;;;;29.60;14.60;;;;;;;-2.38;85.74;95629.20;107195;1271;123708;-81
2022/02/01 01:18:32;;;;;;;27.30;14.20;;;;;;;-2.44;85.78;95635.27;107351;1270;107942;-81
2022/02/01 01:43:59;;;;;;;29.90;15.50;;;;;;;-2.20;86.09;95641.66;107221;1271;117707;-82
2022/02/01 01:54:55;;;;;;;28.90;15.00;;;;;;;-2.15;85.95;95651.44;105936;1271;1808294;-81
2022/02/01 01:57:28;;;;;;;29.60;16.70;;;;;;;-2.14;86.24;95650.73;105601;1271;2300547;-81
2022/02/01 01:59:59;;;;;;;27.60;14.30;;;;;;;-2.09;86.48;95649.32;107244;1271;117309;-82
2022/02/01 02:02:30;;;;;;;28.30;15.50;;;;;;;-2.02;86.54;95651.13;104682;1271;1334644;-82
2022/02/01 02:05:07;;;;;;;39.40;18.00;;;;;;;-1.99;86.76;95652.96;107210;1271;111015;-82
2022/02/01 02:07:40;;;;;;;41.70;19.30;;;;;;;-1.98;86.79;95652.66;107043;1271;262014;-82
2022/02/01 02:10:13;;;;;;;36.20;19.70;;;;;;;-1.98;87.06;95648.52;107340;1271;114072;-82
2022/02/01 02:12:59;;;;;;;39.10;17.60;;;;;;;-1.94;87.36;95650.26;106308;1271;1347335;-82
2022/02/01 02:15:38;;;;;;;41.70;19.50;;;;;;;-1.88;87.34;95653.95;107234;1270;120073;-82
2022/02/01 02:18:09;;;;;;;36.70;19.40;;;;;;;-1.85;87.49;95659.96;107287;1270;106746;-82
2022/02/01 02:20:49;;;;;;;34.90;18.00;;;;;;;-1.82;87.56;95663.59;107185;1271;135913;-82
2022/02/01 02:23:21;;;;;;;31.90;17.60;;;;;;;-1.77;87.73;95667.07;105929;1271;2026449;-82
2022/02/01 02:25:53;;;;;;;35.30;19.10;;;;;;;-1.70;87.48;95673.18;106050;1271;1741935;-82
2022/02/01 02:28:25;;;;;;;33.40;17.70;;;;;;;-1.71;87.58;95678.63;106030;1271;1845921;-81
2022/02/01 02:30:56;;;;;;;38.00;19.20;;;;;;;-1.71;87.50;95682.83;105533;1271;2118760;-82
2022/02/01 02:33:31;;;;;;;40.50;19.60;;;;;;;-1.73;87.74;95686.95;102907;1271;5533187;-82
2022/02/01 02:36:12;;;;;;;39.70;19.60;;;;;;;-1.73;87.79;95691.22;106326;1271;1302869;-81
2022/02/01 02:38:51;;;;;;;34.10;18.10;;;;;;;-1.72;87.92;95690.09;106048;1271;1789562;-82
2022/02/01 02:41:34;;;;;;;37.80;18.40;;;;;;;-1.71;88.12;95689.34;107129;1271;1819306;-80
2022/02/01 02:46:59;;;;;;;44.60;19.70;;;;;;;-1.68;87.90;95699.46;107176;1271;182050;-82
2022/02/01 02:49:31;;;;;;;43.90;22.10;;;;;;;-1.68;87.92;95705.91;105357;1271;2317266;-82
2022/02/01 02:52:00;;;;;;;;;;;;;;;-1.67;88.19;95711.21;104074;1271;2310769;-82
2022/02/01 02:54:32;;;;;;;43.10;22.70;;;;;;;-1.65;88.10;95713.92;107265;1271;131383;-82
2022/02/01 02:57:07;;;;;;;48.00;22.90;;;;;;;-1.62;88.09;95713.48;107257;1271;102529;-81
2022/02/01 02:59:39;;;;;;;49.00;23.80;;;;;;;-1.57;88.22;95713.64;106224;1269;1554499;-82
2022/02/01 03:02:11;;;;;;;37.70;20.00;;;;;;;-1.52;88.24;95716.48;104567;1271;1987223;-82
2022/02/01 03:04:46;;;;;;;31.10;17.80;;;;;;;-1.46;88.56;95715.30;107116;1271;199917;-82
2022/02/01 03:07:21;;;;;;;37.00;18.90;;;;;;;-1.42;88.22;95719.45;107254;1270;225088;-82
2022/02/01 03:09:52;;;;;;;34.70;18.10;;;;;;;-1.41;88.16;95729.69;104862;1271;1858112;-82
2022/02/01 03:12:45;;;;;;;33.10;16.40;;;;;;;-1.41;88.24;95731.05;105164;1270;1787638;-81
2022/02/01 03:15:36;;;;;;;37.60;17.40;;;;;;;-1.43;88.41;95738.13;106450;1270;1458330;-82
2022/02/01 03:20:55;;;;;;;33.90;16.30;;;;;;;-1.44;88.14;95740.61;106092;1270;1450023;-82
2022/02/01 03:23:27;;;;;;;32.70;15.20;;;;;;;-1.40;88.30;95738.33;105730;1270;2119292;-81
2022/02/01 03:25:58;;;;;;;29.60;15.70;;;;;;;-1.37;88.54;95740.52;105822;1271;2019911;-82
2022/02/01 03:28:30;;;;;;;27.50;14.40;;;;;;;-1.36;88.50;95746.54;105597;1271;1690677;-82
2022/02/01 03:31:01;;;;;;;28.50;14.90;;;;;;;-1.33;88.81;95757.89;107273;1271;101343;-82
2022/02/01 03:33:35;;;;;;;36.00;17.80;;;;;;;-1.33;88.63;95758.19;107205;1271;132996;-82
2022/02/01 03:36:08;;;;;;;42.40;18.40;;;;;;;-1.34;88.71;95760.50;105934;1271;1850999;-82
2022/02/01 03:38:40;;;;;;;36.40;18.30;;;;;;;-1.34;88.54;95762.27;105812;1271;2038943;-82
2022/02/01 03:41:12;;;;;;;50.20;21.80;;;;;;;-1.33;88.62;95767.66;107317;1270;116773;-82
2022/02/01 03:43:45;;;;;;;43.30;22.20;;;;;;;-1.36;88.56;95773.67;107260;1270;112633;-82
2022/02/01 03:46:19;;;;;;;53.50;22.80;;;;;;;-1.41;88.51;95773.85;107151;1271;140219;-82
2022/02/01 03:48:50;;;;;;;48.20;23.30;;;;;;;-1.41;88.41;95775.28;106385;1271;1438971;-82
2022/02/01 03:51:24;;;;;;;44.40;23.10;;;;;;;-1.40;88.93;95776.02;107358;1270;133979;-82
2022/02/01 03:53:55;;;;;;;53.90;23.70;;;;;;;-1.42;89.04;95776.21;105799;1268;1793101;-82
2022/02/01 03:56:26;;;;;;;46.20;21.20;;;;;;;-1.41;89.15;95778.52;106258;1271;1490341;-82
2022/02/01 03:58:57;;;;;;;50.00;24.60;;;;;;;-1.39;88.84;95782.70;105672;1270;2074062;-81
2022/02/01 04:01:29;;;;;;;50.80;23.90;;;;;;;-1.36;88.73;95777.46;105538;1271;2093952;-82
2022/02/01 04:04:00;;;;;;;52.80;24.30;;;;;;;-1.36;88.72;95779.95;107162;1270;146816;-82
2022/02/01 04:06:33;;;;;;;49.80;24.10;;;;;;;-1.34;88.92;95777.76;107074;1271;227932;-82
2022/02/01 04:09:07;;;;;;;44.00;23.60;;;;;;;-1.32;88.94;95766.52;103978;1270;2513157;-82
2022/02/01 04:11:38;;;;;;;37.50;21.30;;;;;;;-1.35;89.11;95769.73;107210;1269;125190;-82
2022/02/01 04:14:11;;;;;;;38.00;21.60;;;;;;;-1.37;89.12;95776.31;105770;1270;1854785;-82
2022/02/01 04:16:43;;;;;;;49.20;24.00;;;;;;;-1.38;88.93;95774.82;105562;1270;2343351;-82
2022/02/01 04:19:17;;;;;;;44.10;22.30;;;;;;;-1.38;89.14;95779.77;106433;1268;1299758;-82
2022/02/01 04:21:56;;;;;;;44.20;22.20;;;;;;;-1.35;89.00;95786.13;106097;1270;1739003;-82
2022/02/01 04:24:27;;;;;;;42.40;20.40;;;;;;;-1.37;88.81;95787.27;107266;1271;104827;-82
2022/02/01 04:26:59;;;;;;;44.40;23.30;;;;;;;-1.38;89.13;95781.98;105753;1271;2085546;-82
2022/02/01 04:29:30;;;;;;;38.50;22.50;;;;;;;-1.38;89.11;95787.05;105747;1270;2008158;-81
2022/02/01 04:32:07;;;;;;;42.90;21.80;;;;;;;-1.35;89.20;95792.25;106386;1271;1310058;-82
2022/02/01 04:34:45;;;;;;;45.00;21.70;;;;;;;-1.36;89.23;95786.94;105496;1271;2120424;-82
2022/02/01 04:37:18;;;;;;;33.60;19.60;;;;;;;-1.35;89.21;95783.05;106930;1270;254958;-82
2022/02/01 04:39:51;;;;;;;40.50;21.50;;;;;;;-1.33;88.98;95779.29;106434;1271;1509801;-82
2022/02/01 04:42:24;;;;;;;41.00;20.00;;;;;;;-1.31;89.10;95776.89;105841;1271;2056092;-82
2022/02/01 04:44:59;;;;;;;35.60;19.20;;;;;;;-1.30;88.93;95772.36;107393;1271;100436;-81
2022/02/01 04:47:32;;;;;;;27.70;15.00;;;;;;;-1.30;88.73;95772.09;106065;1270;1753524;-82
2022/02/01 04:50:06;;;;;;;40.40;18.20;;;;;;;-1.29;88.92;95773.83;106239;1270;1475204;-82
2022/02/01 04:52:40;;;;;;;32.90;14.20;;;;;;;-1.37;89.14;95782.48;107277;1271;124669;-81
2022/02/01 04:55:12;;;;;;;43.20;19.00;;;;;;;-1.43;89.05;95788.83;103895;1271;1898730;-82
2022/02/01 04:57:54;;;;;;;36.50;18.90;;;;;;;-1.45;89.10;95793.39;105290;1270;2696637;-82
2022/02/01 05:00:29;;;;;;;37.10;18.70;;;;;;;-1.42;89.00;95792.95;105121;1270;2576960;-82
2022/02/01 05:03:01;;;;;;;33.20;16.40;;;;;;;-1.41;89.18;95790.45;105953;1271;1621851;-82
2022/02/01 05:05:33;;;;;;;31.90;16.80;;;;;;;-1.44;89.39;95790.56;106236;1271;1430539;-81
2022/02/01 05:08:16;;;;;;;37.50;18.10;;;;;;;-1.46;89.60;95797.02;105624;1270;1835099;-82
2022/02/01 05:10:47;;;;;;;36.20;18.30;;;;;;;-1.48;89.62;95805.76;104780;1270;2186571;-82
2022/02/01 05:16:11;;;;;;;39.20;19.50;;;;;;;-1.46;89.58;95811.77;104852;1270;1794318;-82
2022/02/01 05:18:46;;;;;;;47.00;20.80;;;;;;;-1.48;89.97;95820.42;106090;1269;1799433;-82
2022/02/01 05:21:22;;;;;;;33.80;17.90;;;;;;;-1.49;89.88;95822.52;107167;1270;144191;-82
2022/02/01 05:23:57;;;;;;;39.50;18.80;;;;;;;-1.46;89.89;95825.60;105784;1271;1904588;-82
2022/02/01 05:26:28;;;;;;;40.10;19.50;;;;;;;-1.48;89.83;95833.94;107200;1270;120001;-82
2022/02/01 05:28:59;;;;;;;38.60;18.90;;;;;;;-1.48;90.00;95835.70;104973;1270;1685756;-82
2022/02/01 05:31:30;;;;;;;39.50;18.90;;;;;;;-1.47;90.12;95841.70;106127;1270;1459389;-82
2022/02/01 05:34:01;;;;;;;34.60;16.50;;;;;;;-1.46;89.96;95841.40;104469;1271;2446216;-82
2022/02/01 05:36:33;;;;;;;29.40;14.90;;;;;;;-1.42;89.80;95849.88;105980;1267;1766980;-82
2022/02/01 05:39:13;;;;;;;31.70;15.90;;;;;;;-1.37;89.83;95854.95;105771;1270;1479561;-81
2022/02/01 05:41:47;;;;;;;34.50;16.20;;;;;;;-1.34;89.51;95859.70;105264;1271;1746171;-82
2022/02/01 05:44:18;;;;;;;25.70;14.70;;;;;;;-1.38;89.42;95860.04;105808;1271;2039496;-82
2022/02/01 05:46:51;;;;;;;34.20;16.40;;;;;;;-1.39;89.13;95861.58;107572;1268;94844;-82
2022/02/01 05:49:22;;;;;;;27.30;11.80;;;;;;;-1.40;88.90;95859.48;107416;1270;101186;-82
2022/02/01 05:51:56;;;;;;;27.00;11.60;;;;;;;-1.43;88.86;95872.42;105844;1270;1885323;-82
2022/02/01 05:54:29;;;;;;;30.50;14.30;;;;;;;-1.47;88.75;95878.63;104856;1271;1954671;-82
2022/02/01 05:57:01;;;;;;;40.40;17.50;;;;;;;-1.48;88.79;95891.38;106216;1271;1475547;-82
2022/02/01 05:59:32;;;;;;;33.50;17.50;;;;;;;-1.51;88.89;95893.30;105884;1270;1811211;-82
2022/02/01 06:02:09;;;;;;;27.90;16.30;;;;;;;-1.52;88.87;95894.15;105770;1270;1877291;-82
2022/02/01 06:04:40;;;;;;;30.40;14.50;;;;;;;-1.54;88.74;95896.70;103708;1268;2545050;-82
2022/02/01 06:07:15;;;;;;;29.30;16.50;;;;;;;-1.50;88.89;95900.16;105903;1268;1842027;-82
2022/02/01 06:09:47;;;;;;;34.90;16.40;;;;;;;-1.50;88.69;95901.31;105898;1270;1798590;-82
2022/02/01 06:12:18;;;;;;;28.50;15.70;;;;;;;-1.50;88.67;95895.76;106078;1270;1268716;-82
2022/02/01 06:14:51;;;;;;;41.20;18.10;;;;;;;-1.54;88.60;95892.73;107389;1271;147070;-82
2022/02/01 06:17:22;;;;;;;29.60;15.20;;;;;;;-1.58;88.67;95900.16;104696;1267;2632236;-82
2022/02/01 06:19:53;;;;;;;33.60;15.30;;;;;;;-1.61;88.37;95911.92;105419;1270;1682441;-82
2022/02/01 06:22:25;;;;;;;30.90;15.10;;;;;;;-1.62;88.23;95931.40;104786;1271;2053323;-81
2022/02/01 06:24:59;;;;;;;33.70;13.70;;;;;;;-1.61;88.03;95933.39;105802;1271;1820361;-81
2022/02/01 06:27:30;;;;;;;27.20;13.60;;;;;;;-1.59;88.22;95935.67;106016;1268;1758508;-81
2022/02/01 06:30:03;;;;;;;23.20;11.80;;;;;;;-1.57;87.93;95933.90;106060;1270;1443417;-82
2022/02/01 06:32:39;;;;;;;27.20;13.60;;;;;;;-1.56;88.04;95929.88;104583;1270;2019612;-82
2022/02/01 06:35:11;;;;;;;30.30;13.70;;;;;;;-1.55;88.08;95928.36;105687;1270;2129765;-82
2022/02/01 06:37:45;;;;;;;26.10;12.40;;;;;;;-1.53;87.86;95931.55;105867;1268;2092327;-82
2022/02/01 06:40:18;;;;;;;25.60;12.30;;;;;;;-1.48;88.04;95933.45;106117;1269;1773434;-82
2022/02/01 06:42:50;;;;;;;27.10;13.00;;;;;;;-1.46;87.76;95936.09;106021;1270;2056474;-82
2022/02/01 06:45:21;;;;;;;29.40;14.70;;;;;;;-1.51;87.65;95937.16;106464;1268;1465441;-82
2022/02/01 06:47:59;;;;;;;28.80;15.30;;;;;;;-1.54;87.67;95939.16;106090;1270;1814339;-82
2022/02/01 06:50:34;;;;;;;23.10;11.40;;;;;;;-1.57;87.75;95935.62;107084;1270;202626;-82
2022/02/01 06:53:08;;;;;;;34.00;14.50;;;;;;;-1.60;87.73;95935.73;105873;1270;1801391;-82
2022/02/01 06:55:55;;;;;;;27.10;12.60;;;;;;;-1.62;87.72;95932.08;105277;1270;2843493;-82
2022/02/01 06:58:28;;;;;;;21.00;11.20;;;;;;;-1.58;87.51;95933.94;107025;1271;243834;-82
2022/02/01 07:01:04;;;;;;;24.20;12.00;;;;;;;-1.53;87.32;95933.77;105809;1270;2126766;-81
2022/02/01 07:03:35;;;;;;;25.70;12.00;;;;;;;-1.43;87.06;95936.41;103134;1271;2619582;-81
2022/02/01 07:06:12;;;;;;;20.90;11.40;;;;;;;-1.42;86.94;95940.23;107254;1269;150553;-81
2022/02/01 07:08:46;;;;;;;29.00;13.10;;;;;;;-1.43;86.68;95953.20;107279;1269;125059;-82
2022/02/01 07:11:18;;;;;;;30.20;13.50;;;;;;;-1.41;86.61;95968.18;107048;1268;244858;-82
2022/02/01 07:13:50;;;;;;;30.20;13.40;;;;;;;-1.35;86.54;95972.99;104721;1271;2389720;-82
2022/02/01 07:16:25;;;;;;;25.50;11.50;;;;;;;-1.27;86.68;95976.85;107095;1270;1788127;-80
2022/02/01 07:18:58;;;;;;;19.10;9.60;;;;;;;-1.22;86.31;95977.79;107104;1270;127766;-82
2022/02/01 07:21:30;;;;;;;22.80;11.70;;;;;;;-1.16;86.11;95982.44;106064;1270;1467924;-81
2022/02/01 07:24:11;;;;;;;19.20;11.70;;;;;;;-1.15;85.89;95980.86;104661;1270;3291996;-82
2022/02/01 07:26:53;;;;;;;16.20;9.40;;;;;;;-1.21;85.29;95988.40;104765;1271;1730496;-82
2022/02/01 07:29:28;;;;;;;23.20;9.20;;;;;;;-1.25;85.24;95987.20;107221;1270;152344;-81
2022/02/01 07:32:00;;;;;;;18.50;9.90;;;;;;;-1.30;84.96;95990.20;107106;1270;222099;-82
2022/02/01 07:34:34;;;;;;;23.30;10.80;;;;;;;-1.35;84.94;95994.00;105859;1270;2081481;-82
2022/02/01 07:37:06;;;;;;;23.80;10.70;;;;;;;-1.40;84.84;95991.18;107051;1270;124245;-82
2022/02/01 07:39:39;;;;;;;24.20;12.20;;;;;;;-1.41;84.73;95984.70;104878;1270;1807272;-81
2022/02/01 07:42:13;;;;;;;27.20;10.70;;;;;;;-1.40;84.80;95988.05;105184;1270;2696611;-81
2022/02/01 07:44:45;;;;;;;24.00;10.10;;;;;;;-1.39;84.66;95983.45;105527;1270;2515142;-82
2022/02/01 07:47:21;;;;;;;21.30;11.40;;;;;;;-1.38;84.48;95978.16;105891;1270;2090707;-82
2022/02/01 07:49:52;;;;;;;24.00;11.80;;;;;;;-1.38;84.56;95984.98;107533;1270;142939;-82
2022/02/01 07:52:24;;;;;;;21.00;10.90;;;;;;;-1.32;84.67;95986.55;107238;1270;110162;-80
2022/02/01 07:54:58;;;;;;;23.40;10.70;;;;;;;-1.24;84.43;95989.39;105746;1270;1709257;-81
2022/02/01 07:57:29;;;;;;;21.60;11.00;;;;;;;-1.12;84.48;95993.32;105821;1270;2076251;-82
2022/02/01 08:00:01;;;;;;;29.70;12.10;;;;;;;-1.02;84.28;95995.98;107174;1270;112348;-82
2022/02/01 08:02:35;;;;;;;17.80;9.70;;;;;;;-0.96;83.86;95996.67;104931;1269;1800894;-82
2022/02/01 08:05:09;;;;;;;29.40;12.10;;;;;;;-0.90;83.60;95994.31;103349;1271;3593515;-82
2022/02/01 08:07:41;;;;;;;27.30;11.80;;;;;;;-0.87;83.25;96001.51;107266;1268;146733;-82
2022/02/01 08:10:17;;;;;;;19.40;9.70;;;;;;;-0.79;82.92;96000.89;104066;1271;2548879;-82
2022/02/01 08:18:35;;;;;;;25.60;13.10;;;;;;;-0.56;81.54;95995.79;104154;1270;2179126;-82
2022/02/01 08:21:07;;;;;;;21.80;11.00;;;;;;;-0.52;81.27;95996.47;107091;1270;116176;-82
2022/02/01 08:23:40;;;;;;;18.50;9.30;;;;;;;-0.47;80.98;96002.79;105319;1271;2620619;-82
2022/02/01 08:26:12;;;;;;;22.10;9.60;;;;;;;-0.45;80.34;95999.83;105942;1268;1803277;-82
2022/02/01 08:28:45;;;;;;;14.50;6.40;;;;;;;-0.48;79.45;96002.29;106317;1270;1264299;-82
2022/02/01 08:31:22;;;;;;;19.60;8.30;;;;;;;-0.58;78.50;96003.26;105860;1270;1937356;-82
2022/02/01 08:33:54;;;;;;;11.70;6.50;;;;;;;-0.61;78.13;95997.98;105675;1270;2049919;-81
2022/02/01 08:36:29;;;;;;;16.60;7.00;;;;;;;-0.65;77.49;95995.91;107315;1268;110903;-82
2022/02/01 08:39:01;;;;;;;17.40;7.80;;;;;;;-0.71;77.50;95994.96;105616;1270;2288803;-82
2022/02/01 08:41:32;;;;;;;18.40;7.30;;;;;;;-0.75;77.56;96005.15;107046;1270;287209;-82
2022/02/01 08:44:07;;;;;;;16.80;8.10;;;;;;;-0.81;78.04;96013.86;106003;1270;1832144;-82
2022/02/01 08:46:39;;;;;;;25.20;10.90;;;;;;;-0.82;78.72;96013.38;105863;1270;1994669;-82
2022/02/01 08:49:13;;;;;;;16.10;8.20;;;;;;;-0.85;78.65;96018.22;107292;1268;131147;-82
2022/02/01 08:51:56;;;;;;;25.20;11.00;;;;;;;-0.87;78.62;96013.48;105468;1270;2301774;-82
2022/02/01 08:54:33;;;;;;;17.30;7.60;;;;;;;-0.88;78.51;96011.21;105611;1270;2070502;-82
2022/02/01 08:57:22;;;;;;;15.80;8.50;;;;;;;-0.92;78.65;96014.72;105598;1268;2283027;-82
2022/02/01 08:59:56;;;;;;;19.70;8.90;;;;;;;-0.94;78.30;96015.55;106001;1271;2081820;-81
2022/02/01 09:02:31;;;;;;;18.50;9.30;;;;;;;-0.94;78.27;96018.06;103475;1271;2103292;-82
2022/02/01 09:05:06;;;;;;;16.50;8.10;;;;;;;-0.92;78.21;96015.59;106101;1268;1791160;-82
2022/02/01 09:07:38;;;;;;;20.50;8.50;;;;;;;-0.95;78.32;96014.86;105985;1268;1706184;-82
2022/02/01 09:10:14;;;;;;;18.40;8.30;;;;;;;-0.97;78.55;96019.43;104896;1268;1779485;-83
2022/02/01 09:12:47;;;;;;;17.30;8.70;;;;;;;-0.98;78.32;96022.12;106331;1270;1261181;-82
2022/02/01 09:15:19;;;;;;;21.60;8.70;;;;;;;-0.98;78.17;96029.56;105355;1269;2682277;-82
2022/02/01 09:17:52;;;;;;;21.80;9.40;;;;;;;-0.97;78.50;96032.71;105908;1270;1965792;-83
2022/02/01 09:20:28;;;;;;;17.60;7.70;;;;;;;-0.93;78.30;96036.30;106097;1270;1826421;-81
2022/02/01 09:23:03;;;;;;;17.70;8.00;;;;;;;-0.84;78.41;96034.27;107156;1268;126128;-83
2022/02/01 09:25:38;;;;;;;14.60;7.10;;;;;;;-0.74;78.03;96024.19;105944;1269;1882464;-82
2022/02/01 09:28:12;;;;;;;17.30;9.40;;;;;;;-0.51;77.83;96024.71;105823;1271;1817583;-82
2022/02/01 09:30:46;;;;;;;18.60;8.80;;;;;;;-0.26;77.59;96018.14;104028;1270;2575531;-82
2022/02/01 09:33:20;;;;;;;14.90;7.50;;;;;;;-0.22;76.81;96009.65;105563;1270;2344885;-82
2022/02/01 09:35:53;;;;;;;22.00;8.50;;;;;;;-0.26;76.15;96008.77;106226;1268;1769667;-82
2022/02/01 09:38:30;;;;;;;14.60;7.30;;;;;;;-0.28;76.46;96006.38;107231;1270;132163;-82
2022/02/01 09:41:08;;;;;;;16.00;7.20;;;;;;;-0.26;76.15;96013.25;107262;1268;104948;-82
2022/02/01 09:43:40;;;;;;;17.70;8.80;;;;;;;-0.21;75.62;96009.08;105386;1270;2323434;-82
2022/02/01 09:46:15;;;;;;;14.70;7.20;;;;;;;-0.15;75.61;96013.98;105874;1270;1896574;-82
2022/02/01 09:48:47;;;;;;;22.30;8.20;;;;;;;-0.11;75.33;96014.81;106049;1270;1776832;-83
2022/02/01 09:51:23;;;;;;;13.00;7.10;;;;;;;-0.06;75.31;96018.14;107348;1270;109862;-83
2022/02/01 09:53:58;;;;;;;15.30;8.60;;;;;;;-0.10;75.20;96013.39;106932;1270;2142487;-81
2022/02/01 09:56:35;;;;;;;17.80;8.20;;;;;;;-0.16;75.27;96018.31;107216;1270;178585;-82
2022/02/01 09:59:16;;;;;;;16.20;7.60;;;;;;;-0.16;75.37;96015.52;107244;1268;115135;-82
2022/02/01 10:01:55;;;;;;;18.80;8.00;;;;;;;-0.12;75.12;96009.70;105481;1271;2509186;-83
2022/02/01 10:04:41;;;;;;;19.60;8.30;;;;;;;-0.15;74.90;96006.06;102057;1268;4902537;-81
2022/02/01 10:07:22;;;;;;;17.00;7.50;;;;;;;-0.13;75.06;96012.48;106034;1270;1661644;-82
2022/02/01 10:09:56;;;;;;;14.60;6.60;;;;;;;-0.18;74.85;96022.56;105766;1268;2191789;-82
2022/02/01 10:12:35;;;;;;;16.70;7.80;;;;;;;-0.20;74.63;96025.33;107366;1267;123679;-82
2022/02/01 10:15:18;;;;;;;16.20;7.30;;;;;;;-0.19;74.68;96032.05;107307;1269;103310;-83
2022/02/01 10:17:57;;;;;;;15.30;6.50;;;;;;;-0.18;74.84;96024.48;107224;1268;278339;-83
2022/02/01 10:20:42;;;;;;;18.20;9.10;;;;;;;-0.16;74.85;96022.90;105448;1271;1291274;-82
2022/02/01 10:23:26;;;;;;;19.60;6.40;;;;;;;-0.14;74.78;96015.30;107133;1270;131640;-82
2022/02/01 10:26:07;;;;;;;20.20;6.80;;;;;;;-0.18;74.12;96009.30;107308;1269;100921;-82
2022/02/01 10:28:58;;;;;;;12.50;6.30;;;;;;;-0.22;73.40;96001.57;105547;1270;2121012;-83
2022/02/01 10:31:36;;;;;;;11.90;6.90;;;;;;;-0.22;73.40;95999.40;104872;1271;2009226;-83
2022/02/01 10:34:40;;;;;;;18.80;7.40;;;;;;;-0.12;73.25;95989.73;105922;1270;1839625;-83
2022/02/01 10:37:24;;;;;;;22.90;6.80;;;;;;;0.11;72.77;95989.08;105463;1270;2392778;-82
2022/02/01 10:40:02;;;;;;;16.20;6.70;;;;;;;0.29;72.44;95992.80;107235;1269;163696;-82
2022/02/01 10:42:37;;;;;;;16.20;7.30;;;;;;;0.25;71.98;95991.98;105444;1271;2420160;-83
2022/02/01 10:45:14;;;;;;;15.80;8.20;;;;;;;0.07;72.06;95990.45;104947;1271;1969701;-83
2022/02/01 10:47:47;;;;;;;16.30;8.00;;;;;;;-0.13;72.23;95988.55;104313;1270;2231543;-83
2022/02/01 10:50:23;;;;;;;18.40;8.70;;;;;;;-0.12;72.65;95985.29;107187;1270;140700;-83
2022/02/01 10:52:57;;;;;;;15.80;9.00;;;;;;;0.02;72.36;95972.64;105273;1269;2652709;-82
2022/02/01 10:55:31;;;;;;;19.20;7.60;;;;;;;-0.00;71.89;95967.26;105979;1270;1736687;-83
2022/02/01 10:58:11;;;;;;;15.30;8.00;;;;;;;-0.06;71.62;95976.73;105576;1265;2278257;-82
2022/02/01 11:00:46;;;;;;;17.40;7.10;;;;;;;-0.10;70.74;95979.30;104523;1268;2053358;-83
2022/02/01 11:03:18;;;;;;;20.00;8.10;;;;;;;-0.06;70.34;95985.31;105920;1271;1790877;-83
2022/02/01 11:06:00;;;;;;;14.50;7.60;;;;;;;-0.09;69.90;95987.08;107189;1268;147421;-83
2022/02/01 11:08:39;;;;;;;20.90;9.50;;;;;;;-0.11;69.85;95982.14;105787;1270;2019823;-83
2022/02/01 11:11:17;;;;;;;22.20;11.00;;;;;;;-0.13;69.69;95965.50;105650;1270;2064992;-83
2022/02/01 11:13:53;;;;;;;20.10;9.10;;;;;;;-0.18;69.68;95966.34;105704;1270;2288756;-83
2022/02/01 11:16:27;;;;;;;21.60;10.00;;;;;;;-0.22;70.24;95965.38;106136;1270;1487571;-82
2022/02/01 11:19:08;;;;;;;18.50;9.20;;;;;;;-0.22;70.59;95967.19;107214;1269;163357;-83
2022/02/01 11:21:48;;;;;;;23.10;11.00;;;;;;;-0.22;70.69;95967.35;104966;1270;1758509;-83
2022/02/01 11:24:33;;;;;;;25.20;11.40;;;;;;;-0.13;70.83;95968.27;107307;1269;161116;-83
2022/02/01 11:27:15;;;;;;;20.60;11.50;;;;;;;0.01;71.03;95963.95;106962;1270;248655;-83
2022/02/01 11:32:38;;;;;;;23.00;10.70;;;;;;;0.19;71.05;95964.83;106104;1268;1623147;-83
2022/02/01 11:35:16;;;;;;;20.40;10.70;;;;;;;0.35;71.36;95965.45;107169;1270;171644;-83
2022/02/01 11:37:52;;;;;;;22.30;10.60;;;;;;;0.43;70.97;95961.81;107203;1270;147649;-83
2022/02/01 11:40:25;;;;;;;21.90;10.90;;;;;;;0.43;70.78;95962.39;107254;1271;235538;-83
2022/02/01 11:42:57;;;;;;;21.90;10.90;;;;;;;0.49;71.22;95955.84;104761;1270;2283804;-83
2022/02/01 11:45:34;;;;;;;25.50;13.20;;;;;;;0.43;70.45;95957.48;103965;1271;2108935;-83
2022/02/01 11:48:19;;;;;;;17.10;10.10;;;;;;;0.41;70.65;95950.77;106985;1272;169572;-83
2022/02/01 11:50:57;;;;;;;21.70;8.90;;;;;;;0.30;70.62;95948.35;107414;1270;137712;-83
2022/02/01 11:53:33;;;;;;;23.40;11.30;;;;;;;0.20;70.96;95947.64;107055;1270;188446;-83
2022/02/01 11:56:06;;;;;;;19.10;9.90;;;;;;;0.16;71.37;95949.33;107102;1270;290250;-83
2022/02/01 11:58:41;;;;;;;16.50;7.10;;;;;;;0.14;71.58;95940.41;105978;1270;1546034;-83
2022/02/01 12:01:24;;;;;;;17.30;7.00;;;;;;;0.13;71.52;95937.83;107051;1271;201621;-83
2022/02/01 12:04:06;;;;;;;17.20;9.80;;;;;;;0.09;71.50;95938.38;106308;1270;1237848;-81
2022/02/01 12:06:44;;;;;;;20.60;10.80;;;;;;;0.15;72.53;95938.15;106965;1270;262129;-83
2022/02/01 12:09:21;;;;;;;21.70;10.90;;;;;;;0.24;72.50;95934.77;106933;1270;207353;-83
2022/02/01 12:11:57;;;;;;;15.20;7.80;;;;;;;0.28;72.50;95933.06;107446;1270;126845;-83
2022/02/01 12:14:30;;;;;;;14.50;8.10;;;;;;;0.17;72.20;95930.94;107311;1268;138392;-83
2022/02/01 12:17:02;;;;;;;17.40;8.80;;;;;;;0.09;72.13;95930.49;107160;1268;181481;-82
2022/02/01 12:19:38;;;;;;;15.30;6.20;;;;;;;0.05;72.58;95927.23;107221;1271;164540;-83
2022/02/01 12:22:23;;;;;;;14.50;7.70;;;;;;;0.03;72.58;95922.73;106153;1270;1532842;-83
2022/02/01 12:25:03;;;;;;;14.20;8.00;;;;;;;0.01;72.51;95920.70;105628;1270;2202652;-82
2022/02/01 12:27:40;;;;;;;18.30;8.50;;;;;;;0.00;72.40;95917.98;107305;1270;151306;-82
2022/02/01 12:30:17;;;;;;;15.00;8.50;;;;;;;0.02;72.78;95912.39;107339;1271;110340;-83
2022/02/01 12:32:58;;;;;;;17.50;8.90;;;;;;;0.06;72.61;95912.95;106012;1270;1793206;-83
2022/02/01 12:35:39;;;;;;;16.60;7.20;;;;;;;0.07;72.24;95914.26;106226;1270;1196701;-82